Time;durP1;ratioP1;P1;durP2;ratioP2;P2;SDS_P1;SDS_P2;PMS_P1;PMS_P2;Temp;Humidity;BMP_temperature;BMP_pressure;BME280_temperature;BME280_humidity;BME280_pressure;Samples;Min_cycle;Max_cycle;Signal;HPM_P1;HPM_P2
2022/07/19 00:01:58;;;;;;;16.48;7.50;;;;;;;15.09;100.00;156312.13;5011164;28;20083;-78
2022/07/19 00:04:24;;;;;;;12.77;7.18;;;;;;;15.04;100.00;156300.53;5011288;28;20045;-80
2022/07/19 00:06:50;;;;;;;14.85;8.02;;;;;;;14.97;100.00;156283.81;4992043;28;20045;-81
2022/07/19 00:09:18;;;;;;;18.55;7.72;;;;;;;14.92;100.00;156270.94;4984904;28;20111;-80
2022/07/19 00:11:44;;;;;;;16.02;8.35;;;;;;;14.93;100.00;156273.50;5006303;28;20034;-80
2022/07/19 00:14:09;;;;;;;16.88;7.55;;;;;;;14.87;100.00;156258.06;5003090;28;20068;-79
2022/07/19 00:16:35;;;;;;;13.55;8.50;;;;;;;14.78;100.00;156236.19;4997341;28;20129;-79
2022/07/19 00:19:01;;;;;;;13.15;8.43;;;;;;;14.75;100.00;156227.22;4973988;28;20044;-81
2022/07/19 00:21:27;;;;;;;12.05;7.93;;;;;;;14.61;100.00;156192.47;4987180;28;20034;-80
2022/07/19 00:23:52;;;;;;;16.35;7.82;;;;;;;14.63;100.00;156196.34;5020224;28;20037;-79
2022/07/19 00:26:18;;;;;;;16.02;8.13;;;;;;;14.58;100.00;156184.78;4996719;28;20133;-80
2022/07/19 00:28:44;;;;;;;12.68;8.25;;;;;;;14.53;100.00;156173.13;4999758;28;20057;-81
2022/07/19 00:31:09;;;;;;;11.73;8.43;;;;;;;14.52;100.00;156169.25;5008947;28;20140;-78
2022/07/19 00:33:35;;;;;;;13.60;8.60;;;;;;;14.51;100.00;156168.00;5026725;28;20586;-81
2022/07/19 00:36:01;;;;;;;14.13;7.82;;;;;;;14.51;100.00;156168.00;4989957;28;20038;-80
2022/07/19 00:38:26;;;;;;;11.48;7.80;;;;;;;14.50;100.00;156165.41;4991052;28;20859;-79
2022/07/19 00:40:52;;;;;;;12.88;7.82;;;;;;;14.44;100.00;156148.69;4980764;28;20034;-80
2022/07/19 00:43:18;;;;;;;14.10;8.48;;;;;;;14.42;100.00;156144.84;5006995;28;20050;-80
2022/07/19 00:45:43;;;;;;;17.02;9.02;;;;;;;14.44;100.00;156148.69;5004744;28;20034;-79
2022/07/19 00:48:09;;;;;;;13.65;8.32;;;;;;;14.37;100.00;156131.97;4990727;28;20042;-78
2022/07/19 00:50:35;;;;;;;12.02;7.55;;;;;;;14.40;100.00;156140.97;4991436;28;20026;-80
2022/07/19 00:53:04;;;;;;;11.38;8.15;;;;;;;14.36;100.00;156130.69;5004604;28;20496;-80
2022/07/19 00:55:31;;;;;;;16.27;8.90;;;;;;;14.42;100.00;156144.84;5004435;28;20031;-79
2022/07/19 00:57:59;;;;;;;13.20;9.63;;;;;;;14.34;100.00;156125.56;4977250;28;20762;-80
2022/07/19 01:00:26;;;;;;;11.98;9.05;;;;;;;14.31;100.00;156117.81;4993720;28;20037;-80
2022/07/19 01:02:52;;;;;;;12.75;8.23;;;;;;;14.29;100.00;156111.41;4991655;28;20033;-80
2022/07/19 01:05:18;;;;;;;14.70;8.40;;;;;;;14.32;100.00;156120.41;5004454;28;20553;-81
2022/07/19 01:07:44;;;;;;;13.75;8.50;;;;;;;14.33;100.00;156121.69;5005947;28;20041;-79
2022/07/19 01:10:11;;;;;;;13.00;7.65;;;;;;;14.30;100.00;156115.28;5023344;28;20041;-80
2022/07/19 01:12:38;;;;;;;13.38;8.25;;;;;;;14.32;100.00;156120.41;5002108;28;20068;-82
2022/07/19 01:15:19;;;;;;;13.32;8.25;;;;;;;14.28;100.00;156108.81;5006328;28;20050;-81
2022/07/19 01:17:46;;;;;;;15.45;8.75;;;;;;;14.21;100.00;156092.13;4993615;28;20033;-80
2022/07/19 01:20:12;;;;;;;18.60;9.43;;;;;;;14.17;100.00;156083.13;5002091;28;20038;-81
2022/07/19 01:22:38;;;;;;;13.63;8.05;;;;;;;14.21;100.00;156093.41;4999446;28;20029;-79
2022/07/19 01:25:04;;;;;;;15.40;8.13;;;;;;;14.20;100.00;156090.84;4988815;28;20072;-78
2022/07/19 01:27:30;;;;;;;11.95;7.80;;;;;;;14.24;100.00;156099.84;5005033;28;20802;-80
2022/07/19 01:29:55;;;;;;;14.38;7.45;;;;;;;14.18;100.00;156084.38;4999999;28;20045;-81
2022/07/19 01:32:21;;;;;;;13.32;8.02;;;;;;;14.17;100.00;156081.84;4989307;28;20045;-80
2022/07/19 01:34:47;;;;;;;12.13;7.97;;;;;;;14.16;100.00;156079.25;5002453;28;20041;-78
2022/07/19 01:37:12;;;;;;;11.52;9.05;;;;;;;14.15;100.00;156076.72;5004327;28;20541;-80
2022/07/19 01:39:38;;;;;;;12.63;8.15;;;;;;;14.13;100.00;156072.84;4998062;28;20038;-80
2022/07/19 01:42:03;;;;;;;13.30;8.25;;;;;;;14.12;100.00;156068.97;5025782;28;20029;-81
2022/07/19 01:44:29;;;;;;;18.00;8.73;;;;;;;14.15;100.00;156077.97;5010244;28;20509;-80
2022/07/19 01:46:55;;;;;;;18.88;8.55;;;;;;;14.02;100.00;156044.56;5004183;28;20046;-77
2022/07/19 01:49:20;;;;;;;13.70;8.57;;;;;;;13.98;100.00;156034.28;5011056;28;20587;-78
2022/07/19 01:51:46;;;;;;;14.25;8.20;;;;;;;13.77;100.00;155982.84;5010363;28;20037;-81
2022/07/19 01:54:12;;;;;;;15.65;8.10;;;;;;;13.80;100.00;155989.25;5012257;28;20511;-80
2022/07/19 01:56:42;;;;;;;14.57;8.00;;;;;;;13.86;100.00;156004.66;5009070;28;20037;-79
2022/07/19 01:59:07;;;;;;;12.50;7.70;;;;;;;13.84;100.00;155999.53;5003800;28;20069;-79
2022/07/19 02:01:33;;;;;;;16.38;7.97;;;;;;;13.83;100.00;155998.25;5010995;28;20670;-81
2022/07/19 02:03:58;;;;;;;20.27;9.02;;;;;;;13.79;100.00;155986.72;4992476;28;20045;-81
2022/07/19 02:06:24;;;;;;;17.23;8.25;;;;;;;13.70;100.00;155964.84;5005815;28;20152;-78
2022/07/19 02:08:50;;;;;;;18.00;8.95;;;;;;;13.67;100.00;155957.13;5000216;28;20102;-80
2022/07/19 02:13:59;;;;;;;16.05;8.88;;;;;;;13.65;100.00;155951.97;5009361;28;20038;-79
2022/07/19 02:16:25;;;;;;;12.90;8.60;;;;;;;13.62;100.00;155945.56;5024341;28;20041;-79
2022/07/19 02:18:51;;;;;;;14.32;7.93;;;;;;;13.63;100.00;155948.09;5011951;28;20030;-79
2022/07/19 02:21:17;;;;;;;15.35;8.13;;;;;;;13.55;100.00;155927.56;4997863;28;20064;-77
2022/07/19 02:23:43;;;;;;;18.35;8.73;;;;;;;13.48;100.00;155909.56;5022309;28;20082;-78
2022/07/19 02:26:09;;;;;;;15.27;7.95;;;;;;;13.51;100.00;155917.28;5011117;28;20033;-80
2022/07/19 02:28:34;;;;;;;18.70;8.15;;;;;;;13.48;100.00;155909.56;5005424;28;20220;-80
2022/07/19 02:31:00;;;;;;;21.73;8.07;;;;;;;13.47;100.00;155905.69;5007265;28;20051;-79
2022/07/19 02:33:25;;;;;;;15.80;8.30;;;;;;;13.42;100.00;155894.16;4992498;28;20494;-78
2022/07/19 02:35:51;;;;;;;14.90;8.73;;;;;;;13.39;100.00;155887.75;5028342;28;20511;-78
2022/07/19 02:38:17;;;;;;;16.00;9.70;;;;;;;13.34;100.00;155873.59;5011474;28;20041;-79
2022/07/19 02:40:43;;;;;;;20.98;9.25;;;;;;;13.32;100.00;155869.75;5027577;28;20121;-81
2022/07/19 02:43:08;;;;;;;13.70;9.05;;;;;;;13.27;100.00;155856.81;5012676;28;20030;-80
2022/07/19 02:45:34;;;;;;;13.95;9.23;;;;;;;13.25;100.00;155852.97;5002177;28;20069;-79
2022/07/19 02:48:00;;;;;;;15.23;9.75;;;;;;;13.26;100.00;155854.28;5021593;28;20045;-78
2022/07/19 02:50:26;;;;;;;14.23;8.93;;;;;;;13.25;100.00;155852.97;4999721;28;20037;-80
2022/07/19 02:52:51;;;;;;;13.70;9.50;;;;;;;13.19;100.00;155836.28;5020936;28;20068;-80
2022/07/19 02:55:17;;;;;;;19.40;9.40;;;;;;;13.23;100.00;155847.81;5022328;28;20034;-78
2022/07/19 02:57:43;;;;;;;15.18;9.70;;;;;;;13.24;100.00;155850.41;5015628;28;20406;-80
2022/07/19 03:00:09;;;;;;;13.43;9.43;;;;;;;13.23;100.00;155847.81;5008890;28;20315;-80
2022/07/19 03:02:35;;;;;;;13.10;9.38;;;;;;;13.22;100.00;155843.97;4976879;28;20501;-79
2022/07/19 03:05:01;;;;;;;11.50;9.43;;;;;;;13.20;100.00;155840.16;5002165;28;20081;-79
2022/07/19 03:07:26;;;;;;;14.18;9.48;;;;;;;13.15;100.00;155827.28;4994080;28;20065;-79
2022/07/19 03:09:52;;;;;;;16.75;9.48;;;;;;;13.10;100.00;155813.16;5026199;28;20061;-79
2022/07/19 03:12:17;;;;;;;16.92;10.48;;;;;;;13.01;100.00;155791.28;4972262;28;20041;-79
2022/07/19 03:14:43;;;;;;;14.82;10.15;;;;;;;12.97;100.00;155782.28;5005337;28;20046;-79
2022/07/19 03:17:08;;;;;;;15.13;8.98;;;;;;;13.03;100.00;155796.41;5011664;28;20106;-79
2022/07/19 03:19:34;;;;;;;13.02;9.50;;;;;;;12.99;100.00;155786.16;5009354;28;20615;-79
2022/07/19 03:21:59;;;;;;;13.20;9.80;;;;;;;13.03;100.00;155796.41;5019837;28;20261;-79
2022/07/19 03:24:25;;;;;;;13.93;9.20;;;;;;;12.98;100.00;155784.88;5010617;28;20050;-79
2022/07/19 03:26:51;;;;;;;14.93;9.73;;;;;;;13.05;100.00;155802.88;5000333;28;20105;-80
2022/07/19 03:29:16;;;;;;;15.52;9.35;;;;;;;13.05;100.00;155802.88;5004858;28;20041;-79
2022/07/19 03:31:42;;;;;;;14.20;9.60;;;;;;;13.04;100.00;155799.00;4991699;28;20057;-78
2022/07/19 03:34:08;;;;;;;13.75;9.85;;;;;;;13.01;100.00;155792.56;4989438;28;20524;-81
2022/07/19 03:36:34;;;;;;;12.27;9.68;;;;;;;13.05;100.00;155801.56;4998000;28;20045;-79
2022/07/19 03:38:59;;;;;;;17.17;10.13;;;;;;;13.07;100.00;155806.69;4984245;28;20034;-81
2022/07/19 03:41:25;;;;;;;14.77;10.13;;;;;;;13.09;100.00;155810.56;5014613;28;20112;-80
2022/07/19 03:43:50;;;;;;;12.73;9.95;;;;;;;13.04;100.00;155800.28;5015257;28;20038;-79
2022/07/19 03:46:16;;;;;;;13.35;10.18;;;;;;;13.03;100.00;155796.41;5007732;28;20037;-78
2022/07/19 03:48:41;;;;;;;15.60;9.70;;;;;;;13.08;100.00;155808.00;5025340;28;20607;-79
2022/07/19 03:51:07;;;;;;;17.13;9.68;;;;;;;13.05;100.00;155801.56;4999260;28;20038;-79
2022/07/19 03:53:34;;;;;;;13.20;9.05;;;;;;;13.09;100.00;155811.88;4992293;28;20074;-79
2022/07/19 03:56:00;;;;;;;16.73;9.73;;;;;;;13.13;100.00;155822.16;5010609;28;20569;-80
2022/07/19 03:58:26;;;;;;;15.43;9.82;;;;;;;13.13;100.00;155820.81;5005955;28;20164;-80
2022/07/19 04:00:51;;;;;;;15.35;10.52;;;;;;;13.19;100.00;155837.56;5013597;28;20053;-78
2022/07/19 04:03:17;;;;;;;13.77;10.60;;;;;;;13.23;100.00;155846.56;5010001;28;20044;-79
2022/07/19 04:05:43;;;;;;;13.63;10.55;;;;;;;13.22;100.00;155845.28;5004152;28;20064;-78
2022/07/19 04:08:08;;;;;;;14.95;10.45;;;;;;;13.27;100.00;155856.81;4980103;28;20084;-80
2022/07/19 04:10:34;;;;;;;14.60;9.93;;;;;;;13.29;100.00;155861.97;5015098;28;20041;-79
2022/07/19 04:13:00;;;;;;;14.27;10.35;;;;;;;13.35;100.00;155877.41;5006096;28;20128;-80
2022/07/19 04:15:25;;;;;;;18.73;9.65;;;;;;;13.36;100.00;155880.00;5006112;28;20033;-80
2022/07/19 04:17:51;;;;;;;19.88;9.75;;;;;;;13.45;100.00;155901.88;5003447;28;20116;-80
2022/07/19 04:20:17;;;;;;;16.67;9.88;;;;;;;13.45;100.00;155901.88;5004263;28;20037;-80
2022/07/19 04:22:42;;;;;;;13.65;9.63;;;;;;;13.54;100.00;155923.69;4990972;28;20057;-80
2022/07/19 04:25:09;;;;;;;14.80;9.45;;;;;;;13.59;100.00;155937.84;5018170;28;20042;-80
2022/07/19 04:27:35;;;;;;;12.27;9.20;;;;;;;13.65;100.00;155951.97;4994966;28;20048;-79
2022/07/19 04:30:00;;;;;;;14.57;9.38;;;;;;;13.70;100.00;155964.84;5025438;28;20038;-78
2022/07/19 04:32:27;;;;;;;20.25;9.23;;;;;;;13.75;100.00;155976.38;5004443;28;20033;-78
2022/07/19 04:34:53;;;;;;;18.10;9.05;;;;;;;13.79;100.00;155987.97;5010244;28;20471;-78
2022/07/19 04:37:18;;;;;;;14.20;8.50;;;;;;;13.82;100.00;155995.72;4985803;28;20101;-79
2022/07/19 04:39:44;;;;;;;17.10;8.77;;;;;;;13.88;100.00;156008.53;5015637;28;20080;-79
2022/07/19 04:42:10;;;;;;;15.27;9.13;;;;;;;13.93;100.00;156022.69;5005337;28;20441;-78
2022/07/19 04:44:35;;;;;;;15.05;7.95;;;;;;;13.99;100.00;156036.81;5009960;28;20040;-78
2022/07/19 04:47:01;;;;;;;17.85;9.18;;;;;;;14.10;100.00;156065.09;5011084;28;20163;-78
2022/07/19 04:49:27;;;;;;;17.17;9.60;;;;;;;14.25;100.00;156102.41;4987637;28;20041;-79
2022/07/19 04:51:53;;;;;;;16.65;10.30;;;;;;;14.35;100.00;156126.81;5007257;28;20084;-78
2022/07/19 04:54:18;;;;;;;17.13;10.05;;;;;;;14.38;100.00;156134.56;4993661;28;20040;-78
2022/07/19 04:56:44;;;;;;;20.73;10.85;;;;;;;14.52;100.00;156170.59;5011589;28;20034;-80
2022/07/19 04:59:09;;;;;;;22.35;11.98;;;;;;;14.75;100.00;156227.22;5013195;28;20409;-79
2022/07/19 05:01:35;;;;;;;19.25;11.30;;;;;;;14.91;100.00;156268.34;5009680;28;20041;-80
2022/07/19 05:04:01;;;;;;;20.35;10.27;;;;;;;15.08;100.00;156310.81;4973620;28;20489;-79
2022/07/19 05:06:26;;;;;;;18.55;10.48;;;;;;;15.22;100.00;156344.25;5016211;28;20046;-79
2022/07/19 05:08:52;;;;;;;18.65;10.40;;;;;;;15.38;100.00;156386.72;4986268;28;20041;-78
2022/07/19 05:11:19;;;;;;;19.40;10.85;;;;;;;15.51;100.00;156417.63;4996287;28;20104;-78
2022/07/19 05:13:45;;;;;;;18.48;10.05;;;;;;;15.67;100.00;156458.81;5023065;28;20026;-80
2022/07/19 05:16:11;;;;;;;19.80;10.82;;;;;;;15.81;100.00;156493.59;5003870;28;20052;-79
2022/07/19 05:18:36;;;;;;;21.02;10.93;;;;;;;15.87;100.00;156509.03;4991752;28;20386;-78
2022/07/19 05:21:02;;;;;;;18.10;11.57;;;;;;;16.00;100.00;156539.94;5007802;28;20057;-78
2022/07/19 05:23:28;;;;;;;18.58;10.35;;;;;;;16.13;100.00;156573.41;5022733;28;20030;-79
2022/07/19 05:25:53;;;;;;;16.35;10.68;;;;;;;16.21;100.00;156593.97;5005992;28;20042;-78
2022/07/19 05:28:19;;;;;;;16.77;10.60;;;;;;;16.29;100.00;156613.28;4989257;28;20499;-80
2022/07/19 05:30:44;;;;;;;16.23;9.90;;;;;;;16.43;100.00;156649.34;4983417;28;20045;-79
2022/07/19 05:33:10;;;;;;;18.50;10.50;;;;;;;16.56;100.00;156681.56;4992373;28;20042;-80
2022/07/19 05:35:36;;;;;;;24.85;10.48;;;;;;;16.74;100.00;156726.59;5003611;28;20057;-79
2022/07/19 05:38:01;;;;;;;20.15;10.60;;;;;;;16.95;100.00;156779.44;5001222;28;20473;-79
2022/07/19 05:40:27;;;;;;;17.25;10.10;;;;;;;17.16;100.00;156832.28;5000884;28;20033;-78
2022/07/19 05:42:52;;;;;;;17.83;9.93;;;;;;;17.32;100.00;156873.47;5007245;28;20129;-77
2022/07/19 05:45:18;;;;;;;14.50;9.35;;;;;;;17.43;100.00;156899.25;5008094;28;20037;-79
2022/07/19 05:47:43;;;;;;;14.23;9.05;;;;;;;17.50;100.00;156918.56;5021624;28;20461;-80
2022/07/19 05:50:09;;;;;;;18.50;9.30;;;;;;;17.52;100.00;156922.44;4968988;28;20037;-81
2022/07/19 05:52:35;;;;;;;16.80;8.80;;;;;;;17.63;100.00;156950.78;5022638;28;20081;-80
2022/07/19 05:55:01;;;;;;;17.20;9.20;;;;;;;17.75;100.00;156979.13;5000413;28;20477;-80
2022/07/19 05:57:26;;;;;;;12.93;9.00;;;;;;;17.83;100.00;157001.00;4998230;28;20095;-80
2022/07/19 05:59:53;;;;;;;12.00;7.75;;;;;;;17.87;100.00;157011.38;4996466;28;20034;-78
2022/07/19 06:02:19;;;;;;;11.90;7.97;;;;;;;18.03;100.00;157050.06;4977291;28;20037;-80
2022/07/19 06:04:45;;;;;;;12.80;8.23;;;;;;;18.21;100.00;157095.13;4992737;28;20096;-81
2022/07/19 06:07:11;;;;;;;18.70;8.80;;;;;;;18.32;100.00;157122.22;5010817;28;20037;-80
2022/07/19 06:09:36;;;;;;;15.25;8.13;;;;;;;18.49;100.00;157166.03;5024388;28;20030;-80
2022/07/19 06:12:02;;;;;;;13.23;8.52;;;;;;;18.70;100.00;157218.88;5004558;28;20026;-77
2022/07/19 06:14:28;;;;;;;12.95;8.85;;;;;;;18.85;100.00;157257.63;5023326;28;20137;-78
2022/07/19 06:16:53;;;;;;;14.30;8.55;;;;;;;19.02;100.00;157300.19;4999709;28;20029;-78
2022/07/19 06:19:19;;;;;;;17.50;8.85;;;;;;;19.19;100.00;157342.75;4982693;28;20405;-79
2022/07/19 06:21:45;;;;;;;15.18;7.97;;;;;;;19.28;100.00;157363.34;4989309;28;20033;-78
2022/07/19 06:24:11;;;;;;;13.40;7.93;;;;;;;19.33;100.00;157377.53;5007063;28;20034;-80
2022/07/19 06:26:36;;;;;;;15.48;8.60;;;;;;;19.50;99.14;157418.81;5004256;28;20044;-78
2022/07/19 06:29:02;;;;;;;9.38;7.00;;;;;;;19.68;97.22;157463.94;5006476;28;20125;-78
2022/07/19 06:31:28;;;;;;;11.60;7.63;;;;;;;19.83;95.71;157504.00;5007340;28;20034;-78
2022/07/19 06:33:54;;;;;;;13.40;7.18;;;;;;;19.90;95.36;157519.47;5012440;28;20044;-77
2022/07/19 06:36:20;;;;;;;11.77;7.22;;;;;;;20.00;95.87;157545.25;5011220;28;20088;-79
2022/07/19 06:38:47;;;;;;;14.32;7.25;;;;;;;20.05;95.77;157556.88;4987124;28;20034;-79
2022/07/19 06:41:14;;;;;;;8.52;6.10;;;;;;;20.32;91.64;157625.25;5005036;28;20064;-78
2022/07/19 06:43:40;;;;;;;10.60;5.82;;;;;;;20.52;89.71;157675.59;5013996;28;20524;-78
2022/07/19 06:46:06;;;;;;;8.13;5.93;;;;;;;20.74;88.95;157731.16;5027177;28;20042;-78
2022/07/19 06:48:32;;;;;;;7.30;5.50;;;;;;;20.89;85.47;157769.84;5004442;28;20119;-79
2022/07/19 06:50:58;;;;;;;10.82;6.07;;;;;;;21.12;84.35;157826.66;5025364;28;20045;-78
2022/07/19 06:53:24;;;;;;;9.52;5.82;;;;;;;21.26;83.61;157861.47;5024535;28;20030;-78
2022/07/19 06:55:49;;;;;;;9.88;5.55;;;;;;;21.56;82.65;157938.97;5003054;28;20109;-78
2022/07/19 06:58:15;;;;;;;8.05;6.15;;;;;;;21.62;83.32;157953.19;4985391;28;20129;-78
2022/07/19 07:00:42;;;;;;;7.88;5.70;;;;;;;21.77;83.75;157990.63;5018796;28;20204;-78
2022/07/19 07:03:07;;;;;;;11.52;5.65;;;;;;;21.94;83.03;158033.25;4994940;28;20053;-78
2022/07/19 07:05:33;;;;;;;8.57;5.38;;;;;;;22.09;82.36;158071.97;5015131;28;20084;-79
2022/07/19 07:07:59;;;;;;;11.65;5.55;;;;;;;22.29;80.59;158122.41;5014536;28;20041;-80
2022/07/19 07:10:24;;;;;;;9.88;5.95;;;;;;;22.37;77.82;158141.78;5008801;28;20036;-78
2022/07/19 07:12:50;;;;;;;10.40;5.63;;;;;;;22.46;77.73;158163.78;4990838;28;20108;-78
2022/07/19 07:15:16;;;;;;;8.10;4.82;;;;;;;22.55;76.21;158188.31;4991219;28;20046;-77
2022/07/19 07:17:42;;;;;;;9.00;5.15;;;;;;;22.65;75.59;158212.84;5010572;28;20045;-78
2022/07/19 07:20:08;;;;;;;8.23;5.43;;;;;;;22.78;75.69;158245.16;5027639;28;20049;-78
2022/07/19 07:22:35;;;;;;;12.13;5.20;;;;;;;22.94;75.99;158286.50;5007435;28;20190;-78
2022/07/19 07:25:01;;;;;;;6.82;5.35;;;;;;;23.06;73.05;158314.97;5005604;28;20046;-78
2022/07/19 07:27:27;;;;;;;7.07;5.32;;;;;;;23.21;73.25;158352.47;5005311;28;20033;-76
2022/07/19 07:29:52;;;;;;;9.65;5.13;;;;;;;23.28;70.90;158371.84;5008015;28;20064;-75
2022/07/19 07:32:18;;;;;;;9.98;5.63;;;;;;;23.42;71.44;158406.72;4998063;28;20463;-77
2022/07/19 07:34:47;;;;;;;13.65;5.78;;;;;;;23.56;71.46;158440.31;5015180;28;20045;-77
2022/07/19 07:37:13;;;;;;;8.77;5.10;;;;;;;23.71;71.45;158480.41;5006860;28;20065;-77
2022/07/19 07:39:39;;;;;;;7.32;5.00;;;;;;;23.79;70.54;158498.50;5026689;28;20505;-76
2022/07/19 07:42:05;;;;;;;8.13;5.15;;;;;;;23.83;68.77;158510.16;5023495;28;20465;-77
2022/07/19 07:44:31;;;;;;;8.05;4.97;;;;;;;23.90;69.22;158526.94;5013360;28;20095;-77
2022/07/19 07:46:57;;;;;;;6.25;5.18;;;;;;;24.12;68.83;158581.28;5017892;28;20105;-77
2022/07/19 07:49:23;;;;;;;6.38;4.82;;;;;;;24.35;67.72;158640.72;5006120;28;20045;-77
2022/07/19 07:51:48;;;;;;;7.20;5.10;;;;;;;24.45;68.54;158665.31;5001556;28;20092;-77
2022/07/19 07:54:14;;;;;;;11.05;5.38;;;;;;;24.55;67.06;158689.94;5012717;28;20069;-77
2022/07/19 07:56:40;;;;;;;9.40;5.28;;;;;;;24.63;65.82;158710.59;5022256;28;20034;-76
2022/07/19 07:59:06;;;;;;;10.40;5.05;;;;;;;24.75;65.92;158740.34;5023770;28;20416;-77
2022/07/19 08:01:32;;;;;;;20.35;5.28;;;;;;;24.91;66.71;158780.44;5009461;28;20034;-77
2022/07/19 08:03:58;;;;;;;9.07;4.78;;;;;;;24.97;64.39;158795.97;5010569;28;20029;-78
2022/07/19 08:06:23;;;;;;;7.07;4.45;;;;;;;24.99;64.79;158801.13;5002510;28;20526;-76
2022/07/19 08:08:49;;;;;;;9.93;4.50;;;;;;;25.17;62.04;158846.41;5023679;28;22073;-77
2022/07/19 08:11:14;;;;;;;6.55;4.13;;;;;;;25.29;63.18;158876.22;5026023;28;20033;-76
2022/07/19 08:13:40;;;;;;;5.85;4.18;;;;;;;25.41;61.51;158908.56;5000830;28;20568;-77
2022/07/19 08:16:06;;;;;;;6.82;4.10;;;;;;;25.45;60.48;158918.91;5020612;28;20030;-76
2022/07/19 08:18:32;;;;;;;7.90;4.35;;;;;;;25.58;58.31;158949.91;5016390;28;20046;-79
2022/07/19 08:20:59;;;;;;;7.00;4.00;;;;;;;25.61;54.55;158957.69;5006272;28;20493;-77
2022/07/19 08:23:24;;;;;;;9.18;4.15;;;;;;;25.88;58.37;159024.97;5002653;28;20036;-76
2022/07/19 08:25:50;;;;;;;7.18;3.92;;;;;;;25.99;57.59;159054.81;4997298;28;20030;-77
2022/07/19 08:28:15;;;;;;;11.77;4.90;;;;;;;26.08;57.95;159076.78;5016220;28;20034;-76
2022/07/19 08:30:41;;;;;;;8.18;4.13;;;;;;;26.17;59.58;159100.06;5023373;28;20044;-77
2022/07/19 08:33:08;;;;;;;7.93;4.30;;;;;;;26.40;59.30;159158.31;5008118;28;20079;-79
2022/07/19 08:35:34;;;;;;;5.47;4.10;;;;;;;26.60;56.80;159207.56;4995371;28;20041;-79
2022/07/19 08:38:00;;;;;;;4.65;3.78;;;;;;;26.66;54.54;159223.09;5006108;28;20540;-77
2022/07/19 08:40:26;;;;;;;6.88;3.65;;;;;;;26.69;56.46;159229.53;5006543;28;20037;-76
2022/07/19 08:42:53;;;;;;;7.22;4.03;;;;;;;26.86;53.80;159272.25;5000064;28;20037;-77
2022/07/19 08:45:22;;;;;;;4.95;3.80;;;;;;;26.95;51.99;159296.84;5007990;28;20041;-77
2022/07/19 08:47:48;;;;;;;5.18;3.63;;;;;;;27.06;51.29;159322.75;5005734;28;20641;-79
2022/07/19 08:50:14;;;;;;;5.63;3.90;;;;;;;27.06;48.79;159322.75;4992276;28;20080;-77
2022/07/19 08:52:40;;;;;;;5.47;3.80;;;;;;;27.18;49.58;159355.13;4995241;28;20391;-77
2022/07/19 08:55:06;;;;;;;6.57;3.95;;;;;;;27.35;50.01;159397.91;5003724;28;20029;-80
2022/07/19 09:00:16;;;;;;;6.55;4.00;;;;;;;27.57;49.36;159453.56;5001606;28;20049;-78
2022/07/19 09:03:06;;;;;;;6.25;3.53;;;;;;;27.74;47.56;159495.00;5025820;28;20034;-81
2022/07/19 09:05:33;;;;;;;5.47;3.80;;;;;;;27.80;48.18;159509.25;5009271;28;20145;-79
2022/07/19 09:08:11;;;;;;;5.40;3.53;;;;;;;27.92;49.33;159540.41;5016709;28;20041;-78
2022/07/19 09:10:39;;;;;;;6.45;3.58;;;;;;;28.05;45.80;159572.75;4994760;28;20114;-78
2022/07/19 09:13:15;;;;;;;6.57;3.70;;;;;;;28.16;45.71;159601.25;5008685;28;20042;-77
2022/07/19 09:15:50;;;;;;;5.22;3.40;;;;;;;28.24;46.00;159620.72;4997107;28;20045;-78
2022/07/19 09:18:20;;;;;;;3.80;3.50;;;;;;;28.31;47.21;159638.81;5011846;28;20033;-80
2022/07/19 09:20:50;;;;;;;4.70;3.10;;;;;;;28.52;46.51;159692.00;5012180;28;20033;-79
2022/07/19 09:23:16;;;;;;;5.30;3.67;;;;;;;28.59;45.82;159708.81;5021404;28;20038;-78
2022/07/19 09:25:46;;;;;;;5.88;3.53;;;;;;;28.68;46.26;159732.16;5009131;28;20176;-78
2022/07/19 09:28:12;;;;;;;6.32;3.72;;;;;;;28.82;45.68;159767.09;5020684;28;20091;-79
2022/07/19 09:30:41;;;;;;;7.70;3.20;;;;;;;28.90;45.15;159789.16;4985750;28;20045;-77
2022/07/19 09:33:11;;;;;;;3.78;3.25;;;;;;;28.77;43.56;159755.47;5020864;28;20382;-79
2022/07/19 09:35:41;;;;;;;6.15;3.28;;;;;;;28.96;44.72;159802.13;4993831;28;20494;-79
2022/07/19 09:38:14;;;;;;;8.35;3.20;;;;;;;29.19;43.80;159861.75;5004463;28;20034;-78
2022/07/19 09:40:39;;;;;;;4.80;3.38;;;;;;;29.25;43.52;159877.34;5012448;28;20056;-80
2022/07/19 09:43:05;;;;;;;4.97;3.40;;;;;;;29.41;41.92;159916.22;5025571;28;20478;-78
2022/07/19 09:45:32;;;;;;;5.10;3.35;;;;;;;29.54;43.69;159949.91;4993221;28;20034;-80
2022/07/19 09:48:00;;;;;;;5.85;3.20;;;;;;;29.65;43.12;159978.41;4991424;28;20041;-79
2022/07/19 09:50:26;;;;;;;4.63;3.25;;;;;;;29.78;42.34;160010.88;5006589;28;20663;-80
2022/07/19 09:52:52;;;;;;;4.40;3.38;;;;;;;29.97;43.22;160058.84;5010919;28;20029;-80
2022/07/19 09:55:19;;;;;;;5.00;3.30;;;;;;;29.93;43.14;160048.41;5004988;28;20034;-79
2022/07/19 09:57:47;;;;;;;4.97;3.03;;;;;;;30.13;40.91;160097.72;4982650;28;20552;-78
2022/07/19 10:00:14;;;;;;;5.28;2.95;;;;;;;30.20;38.13;160115.88;5013941;28;20042;-78
2022/07/19 10:02:43;;;;;;;5.30;2.70;;;;;;;30.22;37.61;160122.34;5012987;28;20037;-80
2022/07/19 10:05:11;;;;;;;5.50;3.08;;;;;;;30.33;38.14;160148.28;5013521;28;20133;-76
2022/07/19 10:07:37;;;;;;;3.50;3.20;;;;;;;30.38;38.84;160161.28;5029693;28;20040;-78
2022/07/19 10:10:05;;;;;;;4.03;2.90;;;;;;;30.52;40.58;160197.59;5004319;28;20120;-77
2022/07/19 10:12:32;;;;;;;7.88;2.90;;;;;;;30.66;40.12;160233.88;4992522;28;20048;-78
2022/07/19 10:14:58;;;;;;;4.80;3.60;;;;;;;30.64;39.19;160227.41;5017110;28;20073;-77
2022/07/19 10:17:45;;;;;;;5.38;3.17;;;;;;;30.75;39.28;160254.66;4986043;28;20076;-76
2022/07/19 10:20:16;;;;;;;4.32;3.20;;;;;;;30.92;38.50;160298.78;5033370;28;20083;-78
2022/07/19 10:22:41;;;;;;;4.82;3.03;;;;;;;30.99;38.31;160315.66;4987779;28;20416;-76
2022/07/19 10:25:17;;;;;;;5.53;3.05;;;;;;;31.04;37.22;160328.59;5004537;28;20122;-77
2022/07/19 10:27:50;;;;;;;8.88;3.22;;;;;;;31.00;37.21;160318.22;5004098;28;20064;-76
2022/07/19 10:30:16;;;;;;;4.57;3.08;;;;;;;31.04;37.65;160329.91;4984281;28;20041;-76
2022/07/19 10:32:45;;;;;;;3.63;2.53;;;;;;;31.18;36.49;160364.91;5013336;28;20041;-75
2022/07/19 10:35:17;;;;;;;3.00;2.67;;;;;;;31.27;36.70;160385.66;5011677;28;20144;-76
2022/07/19 10:37:48;;;;;;;4.88;3.03;;;;;;;31.45;38.51;160432.34;5010739;28;20042;-76
2022/07/19 10:40:44;;;;;;;5.15;3.17;;;;;;;31.56;36.91;160460.94;4981552;28;20542;-77
2022/07/19 10:43:14;;;;;;;5.85;3.20;;;;;;;31.64;36.18;160480.38;5018713;28;20125;-77
2022/07/19 10:46:03;;;;;;;5.35;2.70;;;;;;;31.75;36.25;160508.94;5013983;28;20038;-76
2022/07/19 10:48:35;;;;;;;5.32;3.05;;;;;;;31.86;36.69;160536.19;5021571;28;20580;-77
2022/07/19 10:51:01;;;;;;;5.20;3.03;;;;;;;31.94;35.92;160556.91;5005526;28;20046;-76
2022/07/19 10:53:39;;;;;;;5.07;2.88;;;;;;;32.24;37.32;160632.22;4989724;28;20030;-77
2022/07/19 10:56:25;;;;;;;3.80;2.90;;;;;;;32.30;35.57;160647.78;5012770;28;20041;-77
2022/07/19 10:58:58;;;;;;;5.50;2.90;;;;;;;32.35;36.87;160659.50;5021419;28;20063;-77
2022/07/19 11:01:28;;;;;;;3.28;2.53;;;;;;;32.52;35.63;160702.31;5012332;28;20038;-76
2022/07/19 11:04:14;;;;;;;2.60;2.40;;;;;;;32.48;33.66;160693.22;5010932;28;20088;-77
2022/07/19 11:06:40;;;;;;;3.10;2.42;;;;;;;32.49;31.06;160694.50;4986692;28;20099;-80
2022/07/19 11:09:05;;;;;;;3.63;2.35;;;;;;;32.54;32.09;160707.50;5007024;28;20425;-75
2022/07/19 11:11:31;;;;;;;2.53;2.33;;;;;;;32.43;32.73;160680.22;5023705;28;20053;-77
2022/07/19 11:13:58;;;;;;;3.97;2.70;;;;;;;32.65;32.94;160734.81;4991180;28;20038;-77
2022/07/19 11:16:25;;;;;;;3.85;2.83;;;;;;;32.74;32.92;160758.19;4989764;28;20065;-77
2022/07/19 11:18:51;;;;;;;3.20;2.58;;;;;;;32.76;33.18;160763.38;5008336;28;20452;-75